createdAt,value
2022-10-07T00:01:04.052Z,14.51
2022-10-07T00:03:32.877Z,14.48
2022-10-07T00:06:02.681Z,14.47
2022-10-07T00:08:30.954Z,14.46
2022-10-07T00:10:59.225Z,14.45
2022-10-07T00:13:27.249Z,14.43
2022-10-07T00:16:04.362Z,14.41
2022-10-07T00:18:32.251Z,14.40
2022-10-07T00:21:03.883Z,14.39
2022-10-07T00:23:31.763Z,14.38
2022-10-07T00:26:02.037Z,14.38
2022-10-07T00:28:30.990Z,14.37
2022-10-07T00:31:01.011Z,14.34
2022-10-07T00:33:31.990Z,14.36
2022-10-07T00:35:59.691Z,14.34
2022-10-07T00:38:27.687Z,14.33
2022-10-07T00:40:55.394Z,14.33
2022-10-07T00:43:25.006Z,14.33
2022-10-07T00:45:54.801Z,14.24
2022-10-07T00:48:28.824Z,14.31
2022-10-07T00:50:58.543Z,14.30
2022-10-07T00:53:28.982Z,14.29
2022-10-07T00:56:01.812Z,14.28
2022-10-07T00:58:31.453Z,14.28
2022-10-07T01:00:59.420Z,14.27
2022-10-07T01:03:28.969Z,14.24
2022-10-07T01:05:56.782Z,14.24
2022-10-07T01:08:25.115Z,14.23
2022-10-07T01:11:02.075Z,14.23
2022-10-07T01:13:36.204Z,14.23
2022-10-07T01:16:12.750Z,14.22
2022-10-07T01:18:49.620Z,14.20
2022-10-07T01:21:24.394Z,14.21
2022-10-07T01:24:08.932Z,14.20
2022-10-07T01:26:56.553Z,14.18
2022-10-07T01:29:29.853Z,14.15
2022-10-07T01:32:03.269Z,14.06
2022-10-07T01:34:32.937Z,14.05
2022-10-07T01:37:03.876Z,14.11
2022-10-07T01:39:38.515Z,14.09
2022-10-07T01:42:08.080Z,14.09
2022-10-07T01:44:37.171Z,14.07
2022-10-07T01:47:04.979Z,14.06
2022-10-07T01:49:32.727Z,14.04
2022-10-07T01:52:19.143Z,14.03
2022-10-07T01:55:07.992Z,14.01
2022-10-07T01:57:50.033Z,14.00
2022-10-07T02:00:18.791Z,14.00
2022-10-07T02:02:56.534Z,13.99
2022-10-07T02:05:33.666Z,13.98
2022-10-07T02:08:16.438Z,13.98
2022-10-07T02:10:59.895Z,13.96
2022-10-07T02:13:36.284Z,13.95
2022-10-07T02:16:11.482Z,13.95
2022-10-07T02:18:43.859Z,13.85
2022-10-07T02:21:13.364Z,13.91
2022-10-07T02:23:45.151Z,13.91
2022-10-07T02:26:16.948Z,13.89
2022-10-07T02:28:48.522Z,13.88
2022-10-07T02:31:17.826Z,13.79
2022-10-07T02:33:48.136Z,13.87
2022-10-07T02:36:22.354Z,13.86
2022-10-07T02:38:50.394Z,13.85
2022-10-07T02:41:32.247Z,13.84
2022-10-07T02:44:12.387Z,13.84
2022-10-07T02:46:46.888Z,13.83
2022-10-07T02:49:18.913Z,13.74
2022-10-07T02:51:54.554Z,13.81
2022-10-07T02:54:28.616Z,13.80
2022-10-07T02:56:57.991Z,13.79
2022-10-07T02:59:28.527Z,13.80
2022-10-07T03:01:59.872Z,13.78
2022-10-07T03:04:27.772Z,13.78
2022-10-07T03:06:55.964Z,13.75
2022-10-07T03:09:23.697Z,13.74
2022-10-07T03:11:51.815Z,13.74
2022-10-07T03:14:19.572Z,13.73
2022-10-07T03:16:48.627Z,13.74
2022-10-07T03:19:16.648Z,13.74
2022-10-07T03:21:44.367Z,13.72
2022-10-07T03:24:12.129Z,13.70
2022-10-07T03:26:39.841Z,13.70
2022-10-07T03:29:08.422Z,13.68
2022-10-07T03:31:36.223Z,13.67
2022-10-07T03:34:05.490Z,13.66
2022-10-07T03:36:33.234Z,13.64
2022-10-07T03:39:01.135Z,13.64
2022-10-07T03:41:28.966Z,13.62
2022-10-07T03:43:57.475Z,13.63
2022-10-07T03:46:25.320Z,13.62
2022-10-07T03:48:53.557Z,13.61
2022-10-07T03:51:22.965Z,13.60
2022-10-07T03:53:54.737Z,13.58
2022-10-07T03:56:22.482Z,13.57
2022-10-07T03:58:50.195Z,13.55
2022-10-07T04:01:18.113Z,13.54
2022-10-07T04:03:46.230Z,13.53
2022-10-07T04:06:14.344Z,13.52
2022-10-07T04:08:43.636Z,13.50
2022-10-07T04:11:11.981Z,13.50
2022-10-07T04:13:41.054Z,13.48
2022-10-07T04:16:12.325Z,13.48
2022-10-07T04:18:41.893Z,13.47
2022-10-07T04:21:10.231Z,13.46
2022-10-07T04:23:38.491Z,13.44
2022-10-07T04:26:11.117Z,13.43
2022-10-07T04:28:39.243Z,13.35
2022-10-07T04:31:08.877Z,13.42
2022-10-07T04:33:40.332Z,13.42
2022-10-07T04:36:10.307Z,13.41
2022-10-07T04:38:38.094Z,13.35
2022-10-07T04:41:07.037Z,13.39
2022-10-07T04:43:36.475Z,13.31
2022-10-07T04:46:06.192Z,13.38
2022-10-07T04:48:34.355Z,13.27
2022-10-07T04:51:03.423Z,13.37
2022-10-07T04:53:31.833Z,13.35
2022-10-07T04:56:00.490Z,13.35
2022-10-07T04:58:29.752Z,13.35
2022-10-07T05:01:00.289Z,13.35
2022-10-07T05:03:29.948Z,13.34
2022-10-07T05:06:05.545Z,13.33
2022-10-07T05:08:34.035Z,13.33
2022-10-07T05:11:03.714Z,13.33
2022-10-07T05:13:32.667Z,13.32
2022-10-07T05:16:03.547Z,13.31
2022-10-07T05:18:33.386Z,13.32
2022-10-07T05:21:05.871Z,13.31
2022-10-07T05:23:35.960Z,13.30
2022-10-07T05:26:07.947Z,13.29
2022-10-07T05:28:36.415Z,13.27
2022-10-07T05:31:07.908Z,13.25
2022-10-07T05:33:36.138Z,13.25
2022-10-07T05:36:04.914Z,13.24
2022-10-07T05:38:32.840Z,13.23
2022-10-07T05:41:02.423Z,13.20
2022-10-07T05:43:32.108Z,13.21
2022-10-07T05:46:01.723Z,13.19
2022-10-07T05:48:38.031Z,13.17
2022-10-07T05:51:07.584Z,13.15
2022-10-07T05:53:35.876Z,13.15
2022-10-07T05:56:06.467Z,13.14
2022-10-07T05:58:35.896Z,13.15
2022-10-07T06:01:11.394Z,13.14
2022-10-07T06:03:42.262Z,13.15
2022-10-07T06:06:10.221Z,13.15
2022-10-07T06:08:38.436Z,13.14
2022-10-07T06:11:32.908Z,13.13
2022-10-07T06:14:01.336Z,13.14
2022-10-07T06:16:29.700Z,13.13
2022-10-07T06:18:59.897Z,13.09
2022-10-07T06:21:28.949Z,13.04
2022-10-07T06:23:57.990Z,13.04
2022-10-07T06:26:26.119Z,13.06
2022-10-07T06:28:53.872Z,13.06
2022-10-07T06:31:25.233Z,13.04
2022-10-07T06:33:53.344Z,13.05
2022-10-07T06:36:22.741Z,13.07
2022-10-07T06:38:52.169Z,13.06
2022-10-07T06:41:21.252Z,13.03
2022-10-07T06:43:50.007Z,13.03
2022-10-07T06:46:19.861Z,13.04
2022-10-07T06:48:48.194Z,13.06
2022-10-07T06:51:17.548Z,13.05
2022-10-07T06:53:47.270Z,13.06
2022-10-07T06:56:15.319Z,13.04
2022-10-07T06:58:43.619Z,13.06
2022-10-07T07:01:11.855Z,13.06
2022-10-07T07:03:40.076Z,13.07
2022-10-07T07:06:09.018Z,13.07
2022-10-07T07:08:37.164Z,13.08
2022-10-07T07:11:28.888Z,13.08
2022-10-07T07:13:56.723Z,13.07
2022-10-07T07:16:25.303Z,13.09
2022-10-07T07:18:53.936Z,13.10
2022-10-07T07:21:22.477Z,13.10
2022-10-07T07:23:51.034Z,13.11
2022-10-07T07:26:20.940Z,13.11
2022-10-07T07:28:52.321Z,13.12
2022-10-07T07:31:20.231Z,13.13
2022-10-07T07:33:52.403Z,13.14
2022-10-07T07:36:22.286Z,13.11
2022-10-07T07:38:54.117Z,13.14
2022-10-07T07:41:25.751Z,13.06
2022-10-07T07:43:55.370Z,13.14
2022-10-07T07:46:25.857Z,13.16
2022-10-07T07:48:54.852Z,13.16
2022-10-07T07:51:22.994Z,13.17
2022-10-07T07:53:51.065Z,13.16
2022-10-07T07:56:20.528Z,13.27
2022-10-07T07:58:49.599Z,13.20
2022-10-07T08:01:19.830Z,13.18
2022-10-07T08:03:49.110Z,13.16
2022-10-07T08:06:19.426Z,13.15
2022-10-07T08:08:47.656Z,13.15
2022-10-07T08:11:17.357Z,13.14
2022-10-07T08:13:45.825Z,13.15
2022-10-07T08:16:16.924Z,13.14
2022-10-07T08:18:46.064Z,13.16
2022-10-07T08:21:14.827Z,13.14
2022-10-07T08:23:43.036Z,13.16
2022-10-07T08:26:10.904Z,13.16
2022-10-07T08:28:39.454Z,13.16
2022-10-07T08:31:09.107Z,13.18
2022-10-07T08:33:40.689Z,13.16
2022-10-07T08:36:12.214Z,13.21
2022-10-07T08:38:41.354Z,13.15
2022-10-07T08:41:33.977Z,13.23
2022-10-07T08:44:16.770Z,13.23
2022-10-07T08:46:53.073Z,13.24
2022-10-07T08:49:28.828Z,13.27
2022-10-07T08:52:02.973Z,13.22
2022-10-07T08:54:33.308Z,13.31
2022-10-07T08:57:10.654Z,13.30
2022-10-07T08:59:41.100Z,13.31
2022-10-07T09:02:24.272Z,13.32
2022-10-07T09:04:59.801Z,13.45
2022-10-07T09:07:34.957Z,13.60
2022-10-07T09:10:10.864Z,13.80
2022-10-07T09:12:48.243Z,13.99
2022-10-07T09:15:21.024Z,14.14
2022-10-07T09:17:55.352Z,14.18
2022-10-07T09:20:31.675Z,14.28
2022-10-07T09:23:01.569Z,14.20
2022-10-07T09:25:31.514Z,14.22
2022-10-07T09:27:59.324Z,14.17
2022-10-07T09:30:29.519Z,14.10
2022-10-07T09:32:58.972Z,14.07
2022-10-07T09:35:31.893Z,14.06
2022-10-07T09:38:01.562Z,14.02
2022-10-07T09:40:35.836Z,14.01
2022-10-07T09:43:14.068Z,13.98
2022-10-07T09:45:47.419Z,13.95
2022-10-07T09:48:22.051Z,13.97
2022-10-07T09:50:51.219Z,13.97
2022-10-07T09:53:22.190Z,13.97
2022-10-07T09:55:51.478Z,14.02
2022-10-07T09:58:22.668Z,13.99
2022-10-07T10:00:52.339Z,13.99
2022-10-07T10:03:20.736Z,13.99
2022-10-07T10:05:57.593Z,14.00
2022-10-07T10:08:27.198Z,14.01
2022-10-07T10:10:57.189Z,14.01
2022-10-07T10:13:31.758Z,14.05
2022-10-07T10:16:00.651Z,14.06
2022-10-07T10:18:34.757Z,14.08
2022-10-07T10:21:25.693Z,14.11
2022-10-07T10:23:56.594Z,14.13
2022-10-07T10:26:34.340Z,14.15
2022-10-07T10:29:17.944Z,14.10
2022-10-07T10:32:04.383Z,14.26
2022-10-07T10:34:44.048Z,14.40
2022-10-07T10:37:20.404Z,14.41
2022-10-07T10:39:58.484Z,14.40
2022-10-07T10:42:34.192Z,14.26
2022-10-07T10:45:15.710Z,14.42
2022-10-07T10:47:56.417Z,14.44
2022-10-07T10:50:31.400Z,14.48
2022-10-07T10:53:13.499Z,14.54
2022-10-07T10:56:03.874Z,14.54
2022-10-07T10:58:41.203Z,14.56
2022-10-07T11:01:15.794Z,14.59
2022-10-07T11:04:21.844Z,14.58
2022-10-07T11:06:54.776Z,14.61
2022-10-07T11:09:31.722Z,14.63
2022-10-07T11:12:04.776Z,14.58
2022-10-07T11:14:36.018Z,14.62
2022-10-07T11:17:07.325Z,14.72
2022-10-07T11:19:39.765Z,14.79
2022-10-07T11:22:14.832Z,14.79
2022-10-07T11:24:50.727Z,14.74
2022-10-07T11:27:24.844Z,14.84
2022-10-07T11:29:58.894Z,14.86
2022-10-07T11:32:32.950Z,14.90
2022-10-07T11:35:17.192Z,14.96
2022-10-07T11:37:51.610Z,15.00
2022-10-07T11:40:28.165Z,14.97
2022-10-07T11:43:00.343Z,15.00
2022-10-07T11:45:34.441Z,15.03
2022-10-07T11:48:05.848Z,15.08
2022-10-07T11:50:38.325Z,15.07
2022-10-07T11:53:10.514Z,15.12
2022-10-07T11:55:45.289Z,15.29
2022-10-07T11:58:25.375Z,15.27
2022-10-07T12:01:40.961Z,15.27
2022-10-07T12:04:25.584Z,15.30
2022-10-07T12:07:30.420Z,15.29
2022-10-07T12:10:21.886Z,15.29
2022-10-07T12:12:53.302Z,15.28
2022-10-07T12:15:33.663Z,15.30
2022-10-07T12:18:34.031Z,15.32
2022-10-07T12:21:06.599Z,15.36
2022-10-07T12:23:44.873Z,15.35
2022-10-07T12:26:49.313Z,15.42
2022-10-07T12:29:44.592Z,15.43
2022-10-07T12:32:41.558Z,15.48
2022-10-07T12:35:54.300Z,15.52
2022-10-07T12:38:29.019Z,15.56
2022-10-07T12:41:25.606Z,15.57
2022-10-07T12:44:04.548Z,15.58
2022-10-07T12:46:36.047Z,15.60
2022-10-07T12:49:13.202Z,15.59
2022-10-07T12:51:42.087Z,15.60
2022-10-07T12:54:20.389Z,15.69
2022-10-07T12:56:49.417Z,15.90
2022-10-07T12:59:48.647Z,15.94
2022-10-07T13:03:22.219Z,15.94
2022-10-07T13:06:33.403Z,16.05
2022-10-07T13:09:37.114Z,16.03
2022-10-07T13:12:22.002Z,16.00
2022-10-07T13:14:59.161Z,16.07
2022-10-07T13:17:36.849Z,16.07
2022-10-07T13:20:18.933Z,16.03
2022-10-07T13:22:51.000Z,16.04
2022-10-07T13:25:21.032Z,16.02
2022-10-07T13:27:54.890Z,16.03
2022-10-07T13:30:40.303Z,16.03
2022-10-07T13:33:17.095Z,16.09
2022-10-07T13:35:45.318Z,16.24
2022-10-07T13:38:22.865Z,16.21
2022-10-07T13:41:03.347Z,16.18
2022-10-07T13:43:34.414Z,16.17
2022-10-07T13:46:03.708Z,16.15
2022-10-07T13:48:35.023Z,16.25
2022-10-07T13:51:03.957Z,16.24
2022-10-07T13:53:35.327Z,16.27
2022-10-07T13:56:09.243Z,16.31
2022-10-07T13:58:38.825Z,16.31
2022-10-07T14:01:07.491Z,16.37
2022-10-07T14:03:35.522Z,16.36
2022-10-07T14:06:03.917Z,16.37
2022-10-07T14:08:32.122Z,16.40
2022-10-07T14:11:04.452Z,16.40
2022-10-07T14:13:34.062Z,16.41
2022-10-07T14:16:03.533Z,16.39
2022-10-07T14:18:32.015Z,16.39
2022-10-07T14:21:10.016Z,16.40
2022-10-07T14:23:38.243Z,16.41
2022-10-07T14:26:09.769Z,16.41
2022-10-07T14:28:39.477Z,16.31
2022-10-07T14:31:36.096Z,16.39
2022-10-07T14:34:28.062Z,16.39
2022-10-07T14:37:03.057Z,16.44
2022-10-07T14:39:36.566Z,16.51
2022-10-07T14:42:04.600Z,16.50
2022-10-07T14:44:32.915Z,16.48
2022-10-07T14:47:06.888Z,16.50
2022-10-07T14:49:34.729Z,16.50
2022-10-07T14:52:03.941Z,16.64
2022-10-07T14:54:32.016Z,16.65
2022-10-07T14:56:59.758Z,16.61
2022-10-07T14:59:27.505Z,16.59
2022-10-07T15:01:55.198Z,16.56
2022-10-07T15:04:24.424Z,16.61
2022-10-07T15:06:52.243Z,16.58
2022-10-07T15:09:20.008Z,16.60
2022-10-07T15:11:48.011Z,16.57
2022-10-07T15:14:15.762Z,16.54
2022-10-07T15:16:43.751Z,16.52
2022-10-07T15:19:11.508Z,16.51
2022-10-07T15:21:40.658Z,16.50
2022-10-07T15:24:08.575Z,16.50
2022-10-07T15:26:36.296Z,16.50
2022-10-07T15:29:04.176Z,16.48
2022-10-07T15:31:32.001Z,16.49
2022-10-07T15:33:59.888Z,16.49
2022-10-07T15:36:29.986Z,16.47
2022-10-07T15:39:01.997Z,16.49
2022-10-07T15:41:32.245Z,16.49
2022-10-07T15:44:01.202Z,16.50
2022-10-07T15:46:29.320Z,16.51
2022-10-07T15:48:57.437Z,16.50
2022-10-07T15:51:25.930Z,16.43
2022-10-07T15:53:54.105Z,16.51
2022-10-07T15:56:25.463Z,16.51
2022-10-07T15:58:54.142Z,16.48
2022-10-07T16:01:22.269Z,16.52
2022-10-07T16:03:50.872Z,16.44
2022-10-07T16:06:21.506Z,16.51
2022-10-07T16:08:50.060Z,16.42
2022-10-07T16:11:18.789Z,16.52
2022-10-07T16:13:49.180Z,16.52
2022-10-07T16:16:18.617Z,16.52
2022-10-07T16:18:48.018Z,16.53
2022-10-07T16:21:17.372Z,16.53
2022-10-07T16:23:47.219Z,16.54
2022-10-07T16:26:17.656Z,16.53
2022-10-07T16:29:07.075Z,16.54
2022-10-07T16:31:36.489Z,16.53
2022-10-07T16:34:05.073Z,16.52
2022-10-07T16:36:35.588Z,16.52
2022-10-07T16:39:05.231Z,16.44
2022-10-07T16:41:33.772Z,16.41
2022-10-07T16:44:04.668Z,16.49
2022-10-07T16:46:32.996Z,16.49
2022-10-07T16:49:01.369Z,16.47
2022-10-07T16:51:30.879Z,16.47
2022-10-07T16:54:03.375Z,16.45
2022-10-07T16:56:33.016Z,16.36
2022-10-07T16:59:03.829Z,16.44
2022-10-07T17:01:32.435Z,16.43
2022-10-07T17:04:01.899Z,16.41
2022-10-07T17:06:31.594Z,16.41
2022-10-07T17:09:03.103Z,16.40
2022-10-07T17:11:32.761Z,16.39
2022-10-07T17:14:04.098Z,16.37
2022-10-07T17:16:34.937Z,16.37
2022-10-07T17:19:02.999Z,16.35
2022-10-07T17:21:30.747Z,16.34
2022-10-07T17:23:59.162Z,16.34
2022-10-07T17:26:28.089Z,16.32
2022-10-07T17:29:07.718Z,16.32
2022-10-07T17:31:39.074Z,16.31
2022-10-07T17:34:07.634Z,16.30
2022-10-07T17:36:36.087Z,16.31
2022-10-07T17:39:05.020Z,16.30
2022-10-07T17:41:34.511Z,16.29
2022-10-07T17:44:05.803Z,16.27
2022-10-07T17:46:36.588Z,16.28
2022-10-07T17:49:05.173Z,16.27
2022-10-07T17:51:34.763Z,16.21
2022-10-07T17:54:04.487Z,16.26
2022-10-07T17:56:32.929Z,16.25
2022-10-07T17:59:00.689Z,16.26
2022-10-07T18:01:32.919Z,16.24
2022-10-07T18:04:02.064Z,16.23
2022-10-07T18:06:31.695Z,16.23
2022-10-07T18:09:00.023Z,16.14
2022-10-07T18:11:47.842Z,16.15
2022-10-07T18:14:33.490Z,16.22
2022-10-07T18:17:03.131Z,16.21
2022-10-07T18:19:31.036Z,16.21
2022-10-07T18:21:59.073Z,16.20
2022-10-07T18:24:29.069Z,16.18
2022-10-07T18:26:58.935Z,16.17
2022-10-07T18:29:27.041Z,16.17
2022-10-07T18:31:55.098Z,16.15
2022-10-07T18:34:24.711Z,16.15
2022-10-07T18:36:56.282Z,16.06
2022-10-07T18:39:27.281Z,16.13
2022-10-07T18:41:55.331Z,16.13
2022-10-07T18:44:23.398Z,16.03
2022-10-07T18:46:51.287Z,16.08
2022-10-07T18:49:19.345Z,16.08
2022-10-07T18:51:50.574Z,16.08
2022-10-07T18:54:18.552Z,16.06
2022-10-07T18:56:48.712Z,15.96
2022-10-07T18:59:16.829Z,16.05
2022-10-07T19:01:49.910Z,16.04
2022-10-07T19:04:19.060Z,16.03
2022-10-07T19:06:48.657Z,16.02
2022-10-07T19:09:20.214Z,16.01
2022-10-07T19:11:48.482Z,16.01
2022-10-07T19:14:15.661Z,16.00
2022-10-07T19:16:45.785Z,15.90
2022-10-07T19:19:16.858Z,15.98
2022-10-07T19:21:46.729Z,15.97
2022-10-07T19:24:16.801Z,15.95
2022-10-07T19:26:46.594Z,15.94
2022-10-07T19:29:15.436Z,15.86
2022-10-07T19:31:45.103Z,15.92
2022-10-07T19:34:15.256Z,15.91
2022-10-07T19:36:47.371Z,15.90
2022-10-07T19:39:18.650Z,15.89
2022-10-07T19:41:47.158Z,15.81
2022-10-07T19:44:15.652Z,15.88
2022-10-07T19:46:43.348Z,15.89
2022-10-07T19:49:12.717Z,15.88
2022-10-07T19:51:42.576Z,15.83
2022-10-07T19:54:12.080Z,15.85
2022-10-07T19:56:42.145Z,15.85
2022-10-07T19:59:11.996Z,15.83
2022-10-07T20:01:41.968Z,15.82
2022-10-07T20:04:13.290Z,15.82
2022-10-07T20:06:41.210Z,15.80
2022-10-07T20:09:11.616Z,15.79
2022-10-07T20:11:39.602Z,15.78
2022-10-07T20:14:09.975Z,15.70
2022-10-07T20:16:38.272Z,15.75
2022-10-07T20:19:08.625Z,15.75
2022-10-07T20:21:38.239Z,15.75
2022-10-07T20:24:07.615Z,15.73
2022-10-07T20:26:37.415Z,15.72
2022-10-07T20:29:07.252Z,15.71
2022-10-07T20:31:38.789Z,15.71
2022-10-07T20:34:08.695Z,15.70
2022-10-07T20:36:38.746Z,15.69
2022-10-07T20:39:26.844Z,15.65
2022-10-07T20:42:12.881Z,15.66
2022-10-07T20:44:42.833Z,15.66
2022-10-07T20:47:12.179Z,15.65
2022-10-07T20:49:41.747Z,15.62
2022-10-07T20:52:13.171Z,15.61
2022-10-07T20:54:44.267Z,15.58
2022-10-07T20:57:13.368Z,15.58
2022-10-07T20:59:41.408Z,15.57
2022-10-07T21:02:12.218Z,15.55
2022-10-07T21:04:40.396Z,15.55
2022-10-07T21:07:09.254Z,15.53
2022-10-07T21:09:37.601Z,15.53
2022-10-07T21:12:07.431Z,15.51
2022-10-07T21:14:35.404Z,15.49
2022-10-07T21:17:03.477Z,15.48
2022-10-07T21:19:34.125Z,15.40
2022-10-07T21:22:02.250Z,15.43
2022-10-07T21:24:34.255Z,15.44
2022-10-07T21:27:03.087Z,15.34
2022-10-07T21:29:32.265Z,15.42
2022-10-07T21:32:00.887Z,15.41
2022-10-07T21:34:29.868Z,15.39
2022-10-07T21:36:59.097Z,15.38
2022-10-07T21:39:27.005Z,15.38
2022-10-07T21:41:55.235Z,15.36
2022-10-07T21:44:22.975Z,15.35
2022-10-07T21:46:51.173Z,15.35
2022-10-07T21:49:18.938Z,15.32
2022-10-07T21:51:47.167Z,15.33
2022-10-07T21:54:16.384Z,15.31
2022-10-07T21:56:46.198Z,15.30
2022-10-07T21:59:14.521Z,15.27
2022-10-07T22:01:43.232Z,15.21
2022-10-07T22:04:17.344Z,15.27
2022-10-07T22:07:03.370Z,15.28
2022-10-07T22:09:33.340Z,15.27
2022-10-07T22:12:01.050Z,15.25
2022-10-07T22:14:28.862Z,15.25
2022-10-07T22:16:56.788Z,15.24
2022-10-07T22:19:25.310Z,15.22
2022-10-07T22:21:53.080Z,15.22
2022-10-07T22:24:20.921Z,15.21
2022-10-07T22:26:51.337Z,15.10
2022-10-07T22:29:21.727Z,15.19
2022-10-07T22:31:49.536Z,15.19
2022-10-07T22:34:34.907Z,15.18
2022-10-07T22:37:03.243Z,15.08
2022-10-07T22:39:31.352Z,15.15
2022-10-07T22:42:01.052Z,15.14
2022-10-07T22:44:28.810Z,15.13
2022-10-07T22:46:56.593Z,15.05
2022-10-07T22:49:28.757Z,15.12
2022-10-07T22:51:58.200Z,15.10
2022-10-07T22:54:26.184Z,15.10
2022-10-07T22:56:53.986Z,15.09
2022-10-07T22:59:23.073Z,15.08
2022-10-07T23:01:50.780Z,15.07
2022-10-07T23:04:20.319Z,15.07
2022-10-07T23:06:48.474Z,15.06
2022-10-07T23:09:16.269Z,14.96
2022-10-07T23:11:43.995Z,15.05
2022-10-07T23:14:11.972Z,15.04
2022-10-07T23:16:41.930Z,15.03
2022-10-07T23:19:10.122Z,15.03
2022-10-07T23:21:37.894Z,15.02
2022-10-07T23:24:08.033Z,15.01
2022-10-07T23:26:37.593Z,15.01
2022-10-07T23:29:06.235Z,15.00
2022-10-07T23:31:34.229Z,14.99
2022-10-07T23:34:03.883Z,14.90
2022-10-07T23:36:32.389Z,14.98
2022-10-07T23:39:01.170Z,14.97
2022-10-07T23:41:31.243Z,14.94
2022-10-07T23:44:00.683Z,14.96
2022-10-07T23:46:29.084Z,14.96
2022-10-07T23:48:56.977Z,14.95
2022-10-07T23:51:28.890Z,14.95
2022-10-07T23:53:57.415Z,14.95
2022-10-07T23:56:25.171Z,14.95
2022-10-07T23:58:53.144Z,14.94
